sensor_id;sensor_type;location;lat;lon;timestamp;P1;durP1;ratioP1;P2;durP2;ratioP2
16314;SDS011;8266;52.150;4.768;2023-04-01T00:02:37;30.02;;;11.70;;
16314;SDS011;8266;52.150;4.768;2023-04-01T00:05:09;24.42;;;11.70;;
16314;SDS011;8266;52.150;4.768;2023-04-01T00:07:58;23.88;;;10.45;;
16314;SDS011;8266;52.150;4.768;2023-04-01T00:10:37;21.40;;;8.75;;
16314;SDS011;8266;52.150;4.768;2023-04-01T00:13:14;19.83;;;8.20;;
16314;SDS011;8266;52.150;4.768;2023-04-01T00:19:48;20.52;;;8.57;;
16314;SDS011;8266;52.150;4.768;2023-04-01T00:22:22;17.58;;;8.90;;
16314;SDS011;8266;52.150;4.768;2023-04-01T00:31:24;12.85;;;7.65;;
16314;SDS011;8266;52.150;4.768;2023-04-01T00:33:55;13.82;;;7.65;;
16314;SDS011;8266;52.150;4.768;2023-04-01T00:36:40;14.23;;;6.70;;
16314;SDS011;8266;52.150;4.768;2023-04-01T00:39:34;14.05;;;6.38;;
16314;SDS011;8266;52.150;4.768;2023-04-01T00:42:03;15.98;;;6.63;;
16314;SDS011;8266;52.150;4.768;2023-04-01T00:44:36;15.02;;;5.75;;
16314;SDS011;8266;52.150;4.768;2023-04-01T00:47:06;13.68;;;6.20;;
16314;SDS011;8266;52.150;4.768;2023-04-01T00:49:34;10.55;;;6.22;;
16314;SDS011;8266;52.150;4.768;2023-04-01T00:52:04;12.57;;;6.00;;
16314;SDS011;8266;52.150;4.768;2023-04-01T00:55:10;12.30;;;5.80;;
16314;SDS011;8266;52.150;4.768;2023-04-01T00:58:54;11.82;;;5.60;;
16314;SDS011;8266;52.150;4.768;2023-04-01T01:02:08;9.82;;;5.50;;
16314;SDS011;8266;52.150;4.768;2023-04-01T01:15:43;10.73;;;5.05;;
16314;SDS011;8266;52.150;4.768;2023-04-01T01:18:47;12.07;;;6.25;;
16314;SDS011;8266;52.150;4.768;2023-04-01T01:21:30;8.13;;;4.47;;
16314;SDS011;8266;52.150;4.768;2023-04-01T01:24:27;10.43;;;5.00;;
16314;SDS011;8266;52.150;4.768;2023-04-01T01:27:09;8.98;;;4.43;;
16314;SDS011;8266;52.150;4.768;2023-04-01T01:29:57;8.35;;;4.22;;
16314;SDS011;8266;52.150;4.768;2023-04-01T01:35:39;11.38;;;4.28;;
16314;SDS011;8266;52.150;4.768;2023-04-01T01:38:22;8.30;;;4.25;;
16314;SDS011;8266;52.150;4.768;2023-04-01T01:40:59;9.70;;;4.40;;
16314;SDS011;8266;52.150;4.768;2023-04-01T01:43:31;11.18;;;5.25;;
16314;SDS011;8266;52.150;4.768;2023-04-01T01:46:10;9.55;;;5.35;;
16314;SDS011;8266;52.150;4.768;2023-04-01T01:49:14;10.15;;;4.95;;
16314;SDS011;8266;52.150;4.768;2023-04-01T01:58:52;7.20;;;4.15;;
16314;SDS011;8266;52.150;4.768;2023-04-01T02:01:39;7.18;;;4.30;;
16314;SDS011;8266;52.150;4.768;2023-04-01T02:04:49;3.58;;;2.97;;
16314;SDS011;8266;52.150;4.768;2023-04-01T02:07:33;4.32;;;3.20;;
16314;SDS011;8266;52.150;4.768;2023-04-01T02:10:12;3.03;;;2.67;;
16314;SDS011;8266;52.150;4.768;2023-04-01T02:12:53;3.20;;;2.60;;
16314;SDS011;8266;52.150;4.768;2023-04-01T02:15:44;3.45;;;2.50;;
16314;SDS011;8266;52.150;4.768;2023-04-01T02:18:18;4.40;;;2.38;;
16314;SDS011;8266;52.150;4.768;2023-04-01T02:20:50;3.30;;;2.08;;
16314;SDS011;8266;52.150;4.768;2023-04-01T02:23:49;4.75;;;3.53;;
16314;SDS011;8266;52.150;4.768;2023-04-01T02:26:31;5.75;;;3.67;;
16314;SDS011;8266;52.150;4.768;2023-04-01T02:29:10;8.13;;;4.65;;
16314;SDS011;8266;52.150;4.768;2023-04-01T02:34:47;12.02;;;6.20;;
16314;SDS011;8266;52.150;4.768;2023-04-01T02:37:19;14.38;;;7.30;;
16314;SDS011;8266;52.150;4.768;2023-04-01T02:40:12;17.08;;;8.07;;
16314;SDS011;8266;52.150;4.768;2023-04-01T02:42:55;20.35;;;9.18;;
16314;SDS011;8266;52.150;4.768;2023-04-01T02:45:24;20.77;;;9.35;;
16314;SDS011;8266;52.150;4.768;2023-04-01T02:48:03;18.27;;;8.82;;
16314;SDS011;8266;52.150;4.768;2023-04-01T02:50:50;15.13;;;8.43;;
16314;SDS011;8266;52.150;4.768;2023-04-01T02:53:39;19.30;;;9.73;;
16314;SDS011;8266;52.150;4.768;2023-04-01T02:56:28;13.15;;;8.13;;
16314;SDS011;8266;52.150;4.768;2023-04-01T02:59:28;12.93;;;6.85;;
16314;SDS011;8266;52.150;4.768;2023-04-01T03:05:48;7.57;;;4.60;;
16314;SDS011;8266;52.150;4.768;2023-04-01T03:08:51;5.15;;;4.38;;
16314;SDS011;8266;52.150;4.768;2023-04-01T03:12:01;5.18;;;4.57;;
16314;SDS011;8266;52.150;4.768;2023-04-01T03:14:59;7.03;;;4.25;;
16314;SDS011;8266;52.150;4.768;2023-04-01T03:18:03;7.15;;;5.18;;
16314;SDS011;8266;52.150;4.768;2023-04-01T03:20:50;8.68;;;5.95;;
16314;SDS011;8266;52.150;4.768;2023-04-01T03:23:30;9.43;;;6.90;;
16314;SDS011;8266;52.150;4.768;2023-04-01T03:26:14;8.02;;;6.68;;
16314;SDS011;8266;52.150;4.768;2023-04-01T03:28:47;7.22;;;6.45;;
16314;SDS011;8266;52.150;4.768;2023-04-01T03:31:18;8.13;;;7.05;;
16314;SDS011;8266;52.150;4.768;2023-04-01T03:34:04;10.00;;;7.55;;
16314;SDS011;8266;52.150;4.768;2023-04-01T03:37:17;8.50;;;7.60;;
16314;SDS011;8266;52.150;4.768;2023-04-01T03:43:25;8.90;;;7.80;;
16314;SDS011;8266;52.150;4.768;2023-04-01T03:46:25;10.38;;;8.18;;
16314;SDS011;8266;52.150;4.768;2023-04-01T03:49:15;9.18;;;8.18;;
16314;SDS011;8266;52.150;4.768;2023-04-01T03:52:32;10.00;;;7.85;;
16314;SDS011;8266;52.150;4.768;2023-04-01T03:55:25;9.38;;;8.45;;
16314;SDS011;8266;52.150;4.768;2023-04-01T03:58:30;10.77;;;9.10;;
16314;SDS011;8266;52.150;4.768;2023-04-01T04:01:54;12.05;;;10.15;;
16314;SDS011;8266;52.150;4.768;2023-04-01T04:04:58;11.57;;;10.02;;
16314;SDS011;8266;52.150;4.768;2023-04-01T04:07:57;15.10;;;11.80;;
16314;SDS011;8266;52.150;4.768;2023-04-01T04:10:43;14.60;;;12.30;;
16314;SDS011;8266;52.150;4.768;2023-04-01T04:14:11;12.93;;;11.52;;
16314;SDS011;8266;52.150;4.768;2023-04-01T04:17:13;12.50;;;10.75;;
16314;SDS011;8266;52.150;4.768;2023-04-01T04:20:13;12.82;;;10.43;;
16314;SDS011;8266;52.150;4.768;2023-04-01T04:26:46;11.93;;;10.50;;
16314;SDS011;8266;52.150;4.768;2023-04-01T04:29:40;12.60;;;10.23;;
16314;SDS011;8266;52.150;4.768;2023-04-01T04:32:21;11.45;;;10.35;;
16314;SDS011;8266;52.150;4.768;2023-04-01T04:35:02;12.63;;;9.73;;
16314;SDS011;8266;52.150;4.768;2023-04-01T04:37:34;11.23;;;10.07;;
16314;SDS011;8266;52.150;4.768;2023-04-01T04:43:27;13.98;;;11.20;;
16314;SDS011;8266;52.150;4.768;2023-04-01T04:45:59;11.88;;;10.38;;
16314;SDS011;8266;52.150;4.768;2023-04-01T04:48:54;11.63;;;10.20;;
16314;SDS011;8266;52.150;4.768;2023-04-01T04:51:42;16.33;;;11.38;;
16314;SDS011;8266;52.150;4.768;2023-04-01T04:54:19;15.52;;;11.68;;
16314;SDS011;8266;52.150;4.768;2023-04-01T04:57:29;14.02;;;11.07;;
16314;SDS011;8266;52.150;4.768;2023-04-01T05:00:11;15.75;;;12.75;;
16314;SDS011;8266;52.150;4.768;2023-04-01T05:02:40;14.48;;;12.10;;
16314;SDS011;8266;52.150;4.768;2023-04-01T05:05:20;14.07;;;11.23;;
16314;SDS011;8266;52.150;4.768;2023-04-01T05:08:03;17.67;;;11.25;;
16314;SDS011;8266;52.150;4.768;2023-04-01T05:11:01;13.07;;;10.18;;
16314;SDS011;8266;52.150;4.768;2023-04-01T05:14:01;14.00;;;10.80;;
16314;SDS011;8266;52.150;4.768;2023-04-01T05:16:35;14.45;;;11.40;;
16314;SDS011;8266;52.150;4.768;2023-04-01T05:19:04;16.70;;;10.93;;
16314;SDS011;8266;52.150;4.768;2023-04-01T05:21:52;14.45;;;10.25;;
16314;SDS011;8266;52.150;4.768;2023-04-01T05:25:33;11.95;;;9.68;;
16314;SDS011;8266;52.150;4.768;2023-04-01T05:27:46;11.38;;;8.93;;
16314;SDS011;8266;52.150;4.768;2023-04-01T05:33:47;16.80;;;9.80;;
16314;SDS011;8266;52.150;4.768;2023-04-01T05:36:29;14.88;;;10.95;;
16314;SDS011;8266;52.150;4.768;2023-04-01T05:42:37;15.45;;;10.52;;
16314;SDS011;8266;52.150;4.768;2023-04-01T05:52:23;12.90;;;9.00;;
16314;SDS011;8266;52.150;4.768;2023-04-01T05:54:58;16.33;;;9.55;;
16314;SDS011;8266;52.150;4.768;2023-04-01T05:57:46;11.50;;;8.63;;
16314;SDS011;8266;52.150;4.768;2023-04-01T06:16:25;14.43;;;8.32;;
16314;SDS011;8266;52.150;4.768;2023-04-01T06:29:31;18.33;;;9.85;;
16314;SDS011;8266;52.150;4.768;2023-04-01T06:35:28;12.95;;;9.07;;
16314;SDS011;8266;52.150;4.768;2023-04-01T06:38:11;12.60;;;8.60;;
16314;SDS011;8266;52.150;4.768;2023-04-01T06:43:43;16.77;;;9.52;;
16314;SDS011;8266;52.150;4.768;2023-04-01T06:46:19;16.55;;;10.20;;
16314;SDS011;8266;52.150;4.768;2023-04-01T06:49:03;16.05;;;9.48;;
16314;SDS011;8266;52.150;4.768;2023-04-01T06:51:46;16.50;;;10.10;;
16314;SDS011;8266;52.150;4.768;2023-04-01T06:54:20;16.17;;;9.60;;
16314;SDS011;8266;52.150;4.768;2023-04-01T06:56:54;14.32;;;9.15;;
16314;SDS011;8266;52.150;4.768;2023-04-01T06:59:27;12.05;;;8.15;;
16314;SDS011;8266;52.150;4.768;2023-04-01T07:02:04;13.82;;;9.10;;
16314;SDS011;8266;52.150;4.768;2023-04-01T07:04:43;14.27;;;9.10;;
16314;SDS011;8266;52.150;4.768;2023-04-01T07:07:16;12.43;;;8.85;;
16314;SDS011;8266;52.150;4.768;2023-04-01T07:09:53;15.52;;;9.85;;
16314;SDS011;8266;52.150;4.768;2023-04-01T07:12:27;12.55;;;8.68;;
16314;SDS011;8266;52.150;4.768;2023-04-01T07:15:03;14.05;;;9.88;;
16314;SDS011;8266;52.150;4.768;2023-04-01T07:18:09;16.30;;;10.07;;
16314;SDS011;8266;52.150;4.768;2023-04-01T07:24:02;15.73;;;10.10;;
16314;SDS011;8266;52.150;4.768;2023-04-01T07:26:40;13.27;;;9.48;;
16314;SDS011;8266;52.150;4.768;2023-04-01T07:29:16;13.93;;;8.90;;
16314;SDS011;8266;52.150;4.768;2023-04-01T07:31:57;12.02;;;8.25;;
16314;SDS011;8266;52.150;4.768;2023-04-01T07:34:50;11.23;;;7.38;;
16314;SDS011;8266;52.150;4.768;2023-04-01T07:37:28;10.65;;;8.27;;
16314;SDS011;8266;52.150;4.768;2023-04-01T07:40:04;11.15;;;7.93;;
16314;SDS011;8266;52.150;4.768;2023-04-01T07:42:41;12.20;;;8.43;;
16314;SDS011;8266;52.150;4.768;2023-04-01T07:45:20;12.75;;;8.40;;
16314;SDS011;8266;52.150;4.768;2023-04-01T07:47:57;12.13;;;8.40;;
16314;SDS011;8266;52.150;4.768;2023-04-01T07:50:48;12.77;;;8.93;;
16314;SDS011;8266;52.150;4.768;2023-04-01T07:53:26;11.63;;;9.10;;
16314;SDS011;8266;52.150;4.768;2023-04-01T07:56:04;11.48;;;9.25;;
16314;SDS011;8266;52.150;4.768;2023-04-01T07:58:35;8.68;;;7.35;;
16314;SDS011;8266;52.150;4.768;2023-04-01T08:01:15;11.18;;;8.13;;
16314;SDS011;8266;52.150;4.768;2023-04-01T08:03:57;12.30;;;9.00;;
16314;SDS011;8266;52.150;4.768;2023-04-01T08:06:42;10.30;;;7.95;;
16314;SDS011;8266;52.150;4.768;2023-04-01T08:09:15;11.95;;;8.57;;
16314;SDS011;8266;52.150;4.768;2023-04-01T08:11:51;9.40;;;8.13;;
16314;SDS011;8266;52.150;4.768;2023-04-01T08:14:29;8.57;;;7.28;;
16314;SDS011;8266;52.150;4.768;2023-04-01T08:17:05;8.75;;;7.20;;
16314;SDS011;8266;52.150;4.768;2023-04-01T08:19:43;9.88;;;7.57;;
16314;SDS011;8266;52.150;4.768;2023-04-01T08:22:23;8.70;;;7.55;;
16314;SDS011;8266;52.150;4.768;2023-04-01T08:24:57;8.88;;;7.47;;
16314;SDS011;8266;52.150;4.768;2023-04-01T08:27:31;8.23;;;7.10;;
16314;SDS011;8266;52.150;4.768;2023-04-01T08:30:15;10.20;;;7.82;;
16314;SDS011;8266;52.150;4.768;2023-04-01T08:32:48;9.43;;;7.35;;
16314;SDS011;8266;52.150;4.768;2023-04-01T08:35:21;8.32;;;7.15;;
16314;SDS011;8266;52.150;4.768;2023-04-01T08:38:00;8.32;;;7.15;;
16314;SDS011;8266;52.150;4.768;2023-04-01T08:40:46;9.40;;;7.35;;
16314;SDS011;8266;52.150;4.768;2023-04-01T08:46:28;10.30;;;7.78;;
16314;SDS011;8266;52.150;4.768;2023-04-01T08:49:18;10.63;;;7.90;;
16314;SDS011;8266;52.150;4.768;2023-04-01T08:55:18;9.23;;;7.15;;
16314;SDS011;8266;52.150;4.768;2023-04-01T09:01:22;7.35;;;5.97;;
16314;SDS011;8266;52.150;4.768;2023-04-01T09:24:43;8.13;;;5.80;;
16314;SDS011;8266;52.150;4.768;2023-04-01T09:27:48;7.57;;;5.78;;
16314;SDS011;8266;52.150;4.768;2023-04-01T09:54:23;4.50;;;3.95;;
16314;SDS011;8266;52.150;4.768;2023-04-01T10:07:31;3.15;;;2.67;;
16314;SDS011;8266;52.150;4.768;2023-04-01T10:13:42;3.10;;;2.80;;
16314;SDS011;8266;52.150;4.768;2023-04-01T10:16:47;2.70;;;2.40;;
16314;SDS011;8266;52.150;4.768;2023-04-01T10:19:48;3.95;;;2.40;;
16314;SDS011;8266;52.150;4.768;2023-04-01T10:26:10;3.63;;;3.17;;
16314;SDS011;8266;52.150;4.768;2023-04-01T10:32:14;5.47;;;4.90;;
16314;SDS011;8266;52.150;4.768;2023-04-01T10:41:51;7.38;;;5.65;;
16314;SDS011;8266;52.150;4.768;2023-04-01T10:44:55;6.38;;;5.53;;
16314;SDS011;8266;52.150;4.768;2023-04-01T10:54:17;7.20;;;5.50;;
16314;SDS011;8266;52.150;4.768;2023-04-01T10:56:58;7.25;;;5.50;;
16314;SDS011;8266;52.150;4.768;2023-04-01T10:59:55;6.38;;;5.40;;
16314;SDS011;8266;52.150;4.768;2023-04-01T11:12:14;6.00;;;4.97;;
16314;SDS011;8266;52.150;4.768;2023-04-01T11:15:21;5.00;;;4.47;;
16314;SDS011;8266;52.150;4.768;2023-04-01T11:27:41;6.90;;;5.57;;
16314;SDS011;8266;52.150;4.768;2023-04-01T11:33:14;8.55;;;6.53;;
16314;SDS011;8266;52.150;4.768;2023-04-01T11:35:55;7.15;;;6.10;;
16314;SDS011;8266;52.150;4.768;2023-04-01T11:38:49;6.25;;;5.63;;
16314;SDS011;8266;52.150;4.768;2023-04-01T11:41:32;5.45;;;4.68;;
16314;SDS011;8266;52.150;4.768;2023-04-01T11:47:20;5.43;;;4.93;;
16314;SDS011;8266;52.150;4.768;2023-04-01T11:50:01;7.25;;;5.88;;
16314;SDS011;8266;52.150;4.768;2023-04-01T11:52:44;7.05;;;5.90;;
16314;SDS011;8266;52.150;4.768;2023-04-01T11:55:25;6.18;;;5.35;;
16314;SDS011;8266;52.150;4.768;2023-04-01T11:58:07;6.10;;;5.50;;
16314;SDS011;8266;52.150;4.768;2023-04-01T12:00:52;7.97;;;5.55;;
16314;SDS011;8266;52.150;4.768;2023-04-01T12:03:43;6.90;;;5.55;;
16314;SDS011;8266;52.150;4.768;2023-04-01T12:06:21;8.95;;;5.93;;
16314;SDS011;8266;52.150;4.768;2023-04-01T12:08:57;8.20;;;5.85;;
16314;SDS011;8266;52.150;4.768;2023-04-01T12:11:32;7.82;;;6.07;;
16314;SDS011;8266;52.150;4.768;2023-04-01T12:14:05;8.75;;;6.10;;
16314;SDS011;8266;52.150;4.768;2023-04-01T12:16:57;8.93;;;6.70;;
16314;SDS011;8266;52.150;4.768;2023-04-01T12:19:35;7.18;;;6.45;;
16314;SDS011;8266;52.150;4.768;2023-04-01T12:22:33;8.60;;;6.05;;
16314;SDS011;8266;52.150;4.768;2023-04-01T12:25:30;9.88;;;6.28;;
16314;SDS011;8266;52.150;4.768;2023-04-01T12:28:25;10.48;;;5.97;;
16314;SDS011;8266;52.150;4.768;2023-04-01T12:31:09;9.13;;;6.38;;
16314;SDS011;8266;52.150;4.768;2023-04-01T12:33:52;8.50;;;5.65;;
16314;SDS011;8266;52.150;4.768;2023-04-01T12:36:33;11.13;;;6.20;;
16314;SDS011;8266;52.150;4.768;2023-04-01T12:41:59;6.03;;;5.30;;
16314;SDS011;8266;52.150;4.768;2023-04-01T12:44:44;7.63;;;4.93;;
16314;SDS011;8266;52.150;4.768;2023-04-01T12:47:29;7.45;;;5.25;;
16314;SDS011;8266;52.150;4.768;2023-04-01T12:50:22;7.15;;;5.43;;
16314;SDS011;8266;52.150;4.768;2023-04-01T12:53:07;7.57;;;5.70;;
16314;SDS011;8266;52.150;4.768;2023-04-01T12:55:45;5.65;;;5.05;;
16314;SDS011;8266;52.150;4.768;2023-04-01T12:58:30;8.57;;;5.97;;
16314;SDS011;8266;52.150;4.768;2023-04-01T13:01:28;9.57;;;5.32;;
16314;SDS011;8266;52.150;4.768;2023-04-01T13:04:25;7.15;;;5.28;;
16314;SDS011;8266;52.150;4.768;2023-04-01T13:10:27;5.90;;;5.10;;
16314;SDS011;8266;52.150;4.768;2023-04-01T13:16:01;5.22;;;4.72;;
16314;SDS011;8266;52.150;4.768;2023-04-01T13:18:37;7.43;;;5.50;;
16314;SDS011;8266;52.150;4.768;2023-04-01T13:21:13;5.88;;;3.90;;
16314;SDS011;8266;52.150;4.768;2023-04-01T13:23:54;7.30;;;4.60;;
16314;SDS011;8266;52.150;4.768;2023-04-01T13:26:30;9.18;;;4.57;;
16314;SDS011;8266;52.150;4.768;2023-04-01T13:29:06;7.13;;;4.50;;
16314;SDS011;8266;52.150;4.768;2023-04-01T13:31:44;6.15;;;4.53;;
16314;SDS011;8266;52.150;4.768;2023-04-01T13:34:23;5.88;;;5.25;;
16314;SDS011;8266;52.150;4.768;2023-04-01T13:37:04;6.65;;;5.90;;
16314;SDS011;8266;52.150;4.768;2023-04-01T13:39:51;7.78;;;5.80;;
16314;SDS011;8266;52.150;4.768;2023-04-01T13:42:29;6.50;;;5.80;;
16314;SDS011;8266;52.150;4.768;2023-04-01T13:45:08;6.80;;;5.97;;
16314;SDS011;8266;52.150;4.768;2023-04-01T13:47:49;5.35;;;4.90;;
16314;SDS011;8266;52.150;4.768;2023-04-01T13:50:31;5.40;;;4.22;;
16314;SDS011;8266;52.150;4.768;2023-04-01T13:56:15;5.25;;;3.88;;
16314;SDS011;8266;52.150;4.768;2023-04-01T13:58:55;4.60;;;4.20;;
16314;SDS011;8266;52.150;4.768;2023-04-01T14:01:35;3.65;;;3.35;;
16314;SDS011;8266;52.150;4.768;2023-04-01T14:04:19;3.58;;;2.90;;
16314;SDS011;8266;52.150;4.768;2023-04-01T14:09:47;4.95;;;4.10;;
16314;SDS011;8266;52.150;4.768;2023-04-01T14:12:31;4.38;;;3.97;;
16314;SDS011;8266;52.150;4.768;2023-04-01T14:15:29;5.53;;;4.38;;
16314;SDS011;8266;52.150;4.768;2023-04-01T14:18:16;4.78;;;4.38;;
16314;SDS011;8266;52.150;4.768;2023-04-01T14:20:59;5.25;;;3.92;;
16314;SDS011;8266;52.150;4.768;2023-04-01T14:24:07;4.82;;;4.07;;
16314;SDS011;8266;52.150;4.768;2023-04-01T14:29:56;4.47;;;4.07;;
16314;SDS011;8266;52.150;4.768;2023-04-01T14:32:38;3.90;;;3.58;;
16314;SDS011;8266;52.150;4.768;2023-04-01T14:35:17;3.58;;;3.28;;
16314;SDS011;8266;52.150;4.768;2023-04-01T14:37:58;3.08;;;2.80;;
16314;SDS011;8266;52.150;4.768;2023-04-01T14:43:28;3.08;;;2.88;;
16314;SDS011;8266;52.150;4.768;2023-04-01T14:46:32;4.60;;;3.70;;
16314;SDS011;8266;52.150;4.768;2023-04-01T14:49:15;4.55;;;4.13;;
16314;SDS011;8266;52.150;4.768;2023-04-01T14:51:47;4.53;;;4.13;;
16314;SDS011;8266;52.150;4.768;2023-04-01T14:54:17;5.63;;;4.70;;
16314;SDS011;8266;52.150;4.768;2023-04-01T14:56:49;5.55;;;5.05;;
16314;SDS011;8266;52.150;4.768;2023-04-01T14:59:25;5.60;;;4.53;;
16314;SDS011;8266;52.150;4.768;2023-04-01T15:02:18;5.10;;;4.68;;
16314;SDS011;8266;52.150;4.768;2023-04-01T15:05:11;4.97;;;4.57;;
16314;SDS011;8266;52.150;4.768;2023-04-01T15:07:59;5.30;;;4.80;;
16314;SDS011;8266;52.150;4.768;2023-04-01T15:10:43;5.13;;;4.35;;
16314;SDS011;8266;52.150;4.768;2023-04-01T15:13:21;6.05;;;4.75;;
16314;SDS011;8266;52.150;4.768;2023-04-01T15:16:04;5.72;;;4.90;;
16314;SDS011;8266;52.150;4.768;2023-04-01T15:18:43;6.10;;;5.47;;
16314;SDS011;8266;52.150;4.768;2023-04-01T15:21:30;6.60;;;5.55;;
16314;SDS011;8266;52.150;4.768;2023-04-01T15:24:10;6.82;;;5.82;;
16314;SDS011;8266;52.150;4.768;2023-04-01T15:27:00;7.00;;;6.30;;
16314;SDS011;8266;52.150;4.768;2023-04-01T15:32:31;6.13;;;5.53;;
16314;SDS011;8266;52.150;4.768;2023-04-01T15:35:13;6.68;;;5.93;;
16314;SDS011;8266;52.150;4.768;2023-04-01T15:37:53;6.38;;;5.30;;
16314;SDS011;8266;52.150;4.768;2023-04-01T15:40:27;6.70;;;5.65;;
16314;SDS011;8266;52.150;4.768;2023-04-01T15:43:01;6.15;;;5.65;;
16314;SDS011;8266;52.150;4.768;2023-04-01T15:45:41;5.78;;;4.90;;
16314;SDS011;8266;52.150;4.768;2023-04-01T15:48:22;6.15;;;5.50;;
16314;SDS011;8266;52.150;4.768;2023-04-01T15:51:09;6.35;;;5.55;;
16314;SDS011;8266;52.150;4.768;2023-04-01T15:53:50;5.20;;;4.55;;
16314;SDS011;8266;52.150;4.768;2023-04-01T15:56:51;5.93;;;4.80;;
16314;SDS011;8266;52.150;4.768;2023-04-01T15:59:33;6.07;;;5.47;;
16314;SDS011;8266;52.150;4.768;2023-04-01T16:02:18;5.30;;;4.90;;
16314;SDS011;8266;52.150;4.768;2023-04-01T16:04:54;6.07;;;5.45;;
16314;SDS011;8266;52.150;4.768;2023-04-01T16:07:36;5.85;;;5.30;;
16314;SDS011;8266;52.150;4.768;2023-04-01T16:13:33;4.82;;;4.43;;
16314;SDS011;8266;52.150;4.768;2023-04-01T16:16:14;5.80;;;5.20;;
16314;SDS011;8266;52.150;4.768;2023-04-01T16:19:05;5.53;;;5.03;;
16314;SDS011;8266;52.150;4.768;2023-04-01T16:21:45;5.07;;;4.65;;
16314;SDS011;8266;52.150;4.768;2023-04-01T16:24:19;6.25;;;5.30;;
16314;SDS011;8266;52.150;4.768;2023-04-01T16:26:52;6.38;;;5.88;;
16314;SDS011;8266;52.150;4.768;2023-04-01T16:29:26;6.25;;;5.72;;
16314;SDS011;8266;52.150;4.768;2023-04-01T16:31:59;6.07;;;5.57;;
16314;SDS011;8266;52.150;4.768;2023-04-01T16:34:40;5.68;;;5.18;;
16314;SDS011;8266;52.150;4.768;2023-04-01T16:37:12;5.72;;;5.13;;
16314;SDS011;8266;52.150;4.768;2023-04-01T16:39:47;6.72;;;5.25;;
16314;SDS011;8266;52.150;4.768;2023-04-01T16:42:32;6.50;;;5.55;;
16314;SDS011;8266;52.150;4.768;2023-04-01T16:45:15;5.10;;;4.55;;
16314;SDS011;8266;52.150;4.768;2023-04-01T16:50:46;5.28;;;4.78;;
16314;SDS011;8266;52.150;4.768;2023-04-01T16:53:25;4.95;;;4.57;;
16314;SDS011;8266;52.150;4.768;2023-04-01T16:56:13;4.93;;;4.28;;
16314;SDS011;8266;52.150;4.768;2023-04-01T16:58:57;4.13;;;3.80;;
16314;SDS011;8266;52.150;4.768;2023-04-01T17:01:44;4.40;;;4.00;;
16314;SDS011;8266;52.150;4.768;2023-04-01T17:04:19;4.68;;;4.28;;
16314;SDS011;8266;52.150;4.768;2023-04-01T17:07:11;3.95;;;3.65;;
16314;SDS011;8266;52.150;4.768;2023-04-01T17:09:55;4.72;;;3.90;;
16314;SDS011;8266;52.150;4.768;2023-04-01T17:12:36;3.67;;;3.38;;
16314;SDS011;8266;52.150;4.768;2023-04-01T17:15:11;4.32;;;3.58;;
16314;SDS011;8266;52.150;4.768;2023-04-01T17:17:45;4.50;;;4.10;;
16314;SDS011;8266;52.150;4.768;2023-04-01T17:20:25;4.53;;;4.13;;
16314;SDS011;8266;52.150;4.768;2023-04-01T17:23:08;4.13;;;3.72;;
16314;SDS011;8266;52.150;4.768;2023-04-01T17:25:56;3.95;;;3.58;;
16314;SDS011;8266;52.150;4.768;2023-04-01T17:28:40;4.20;;;3.80;;
16314;SDS011;8266;52.150;4.768;2023-04-01T17:31:20;3.95;;;3.60;;
16314;SDS011;8266;52.150;4.768;2023-04-01T17:34:03;3.40;;;3.10;;
16314;SDS011;8266;52.150;4.768;2023-04-01T17:36:45;3.67;;;2.83;;
16314;SDS011;8266;52.150;4.768;2023-04-01T17:42:41;3.67;;;2.90;;
16314;SDS011;8266;52.150;4.768;2023-04-01T17:45:18;2.85;;;2.47;;
16314;SDS011;8266;52.150;4.768;2023-04-01T17:47:52;3.38;;;2.50;;
16314;SDS011;8266;52.150;4.768;2023-04-01T17:50:30;2.60;;;2.40;;
16314;SDS011;8266;52.150;4.768;2023-04-01T17:53:30;3.53;;;3.22;;
16314;SDS011;8266;52.150;4.768;2023-04-01T17:56:09;3.13;;;2.92;;
16314;SDS011;8266;52.150;4.768;2023-04-01T17:58:46;3.47;;;3.17;;
16314;SDS011;8266;52.150;4.768;2023-04-01T18:01:23;3.50;;;3.20;;
16314;SDS011;8266;52.150;4.768;2023-04-01T18:04:07;2.75;;;2.55;;
16314;SDS011;8266;52.150;4.768;2023-04-01T18:06:46;3.20;;;2.90;;
16314;SDS011;8266;52.150;4.768;2023-04-01T18:09:34;3.35;;;3.10;;
16314;SDS011;8266;52.150;4.768;2023-04-01T18:12:10;3.55;;;3.35;;
16314;SDS011;8266;52.150;4.768;2023-04-01T18:17:58;3.63;;;3.33;;
16314;SDS011;8266;52.150;4.768;2023-04-01T18:20:39;3.95;;;3.65;;
16314;SDS011;8266;52.150;4.768;2023-04-01T18:23:23;4.35;;;3.95;;
16314;SDS011;8266;52.150;4.768;2023-04-01T18:26:02;4.45;;;4.05;;
16314;SDS011;8266;52.150;4.768;2023-04-01T18:28:32;4.43;;;3.80;;
16314;SDS011;8266;52.150;4.768;2023-04-01T18:31:13;3.60;;;3.28;;
16314;SDS011;8266;52.150;4.768;2023-04-01T18:33:49;4.68;;;3.95;;
16314;SDS011;8266;52.150;4.768;2023-04-01T18:36:26;4.57;;;4.18;;
16314;SDS011;8266;52.150;4.768;2023-04-01T18:39:08;4.07;;;3.53;;
16314;SDS011;8266;52.150;4.768;2023-04-01T18:41:42;5.15;;;4.30;;
16314;SDS011;8266;52.150;4.768;2023-04-01T18:44:28;3.72;;;3.42;;
16314;SDS011;8266;52.150;4.768;2023-04-01T18:47:05;3.60;;;3.40;;
16314;SDS011;8266;52.150;4.768;2023-04-01T18:49:46;3.53;;;3.17;;
16314;SDS011;8266;52.150;4.768;2023-04-01T18:52:20;3.42;;;3.17;;
16314;SDS011;8266;52.150;4.768;2023-04-01T18:55:20;3.10;;;2.80;;
16314;SDS011;8266;52.150;4.768;2023-04-01T18:57:55;3.40;;;3.20;;
16314;SDS011;8266;52.150;4.768;2023-04-01T19:00:35;3.42;;;3.08;;
16314;SDS011;8266;52.150;4.768;2023-04-01T19:03:07;3.47;;;3.17;;
16314;SDS011;8266;52.150;4.768;2023-04-01T19:05:44;3.35;;;3.10;;
16314;SDS011;8266;52.150;4.768;2023-04-01T19:08:17;3.90;;;3.60;;
16314;SDS011;8266;52.150;4.768;2023-04-01T19:10:51;3.55;;;3.25;;
16314;SDS011;8266;52.150;4.768;2023-04-01T19:13:29;4.55;;;3.78;;
16314;SDS011;8266;52.150;4.768;2023-04-01T19:16:06;3.97;;;3.67;;
16314;SDS011;8266;52.150;4.768;2023-04-01T19:18:47;4.22;;;3.83;;
16314;SDS011;8266;52.150;4.768;2023-04-01T19:21:27;4.00;;;3.60;;
16314;SDS011;8266;52.150;4.768;2023-04-01T19:24:16;3.92;;;3.63;;
16314;SDS011;8266;52.150;4.768;2023-04-01T19:27:02;4.03;;;3.72;;
16314;SDS011;8266;52.150;4.768;2023-04-01T19:29:40;4.20;;;3.90;;
16314;SDS011;8266;52.150;4.768;2023-04-01T19:32:22;4.22;;;3.83;;
16314;SDS011;8266;52.150;4.768;2023-04-01T19:34:59;4.30;;;3.90;;
16314;SDS011;8266;52.150;4.768;2023-04-01T19:37:50;4.20;;;3.88;;
16314;SDS011;8266;52.150;4.768;2023-04-01T19:40:27;4.50;;;3.90;;
16314;SDS011;8266;52.150;4.768;2023-04-01T19:43:06;4.78;;;4.38;;
16314;SDS011;8266;52.150;4.768;2023-04-01T19:45:43;4.70;;;4.13;;
16314;SDS011;8266;52.150;4.768;2023-04-01T19:48:20;4.50;;;4.13;;
16314;SDS011;8266;52.150;4.768;2023-04-01T19:51:05;4.65;;;4.20;;
16314;SDS011;8266;52.150;4.768;2023-04-01T19:53:44;4.68;;;4.28;;
16314;SDS011;8266;52.150;4.768;2023-04-01T19:56:19;5.05;;;4.55;;
16314;SDS011;8266;52.150;4.768;2023-04-01T19:58:50;5.07;;;4.57;;
16314;SDS011;8266;52.150;4.768;2023-04-01T20:01:22;5.10;;;4.70;;
16314;SDS011;8266;52.150;4.768;2023-04-01T20:03:55;3.90;;;3.60;;
16314;SDS011;8266;52.150;4.768;2023-04-01T20:06:28;4.40;;;4.00;;
16314;SDS011;8266;52.150;4.768;2023-04-01T20:09:09;4.72;;;4.32;;
16314;SDS011;8266;52.150;4.768;2023-04-01T20:11:54;4.43;;;4.03;;
16314;SDS011;8266;52.150;4.768;2023-04-01T20:14:27;4.95;;;4.55;;
16314;SDS011;8266;52.150;4.768;2023-04-01T20:17:07;5.80;;;5.30;;
16314;SDS011;8266;52.150;4.768;2023-04-01T20:19:43;6.65;;;5.50;;
16314;SDS011;8266;52.150;4.768;2023-04-01T20:22:23;5.28;;;4.78;;
16314;SDS011;8266;52.150;4.768;2023-04-01T20:25:05;5.82;;;5.32;;
16314;SDS011;8266;52.150;4.768;2023-04-01T20:27:38;5.30;;;4.80;;
16314;SDS011;8266;52.150;4.768;2023-04-01T20:30:21;5.15;;;4.65;;
16314;SDS011;8266;52.150;4.768;2023-04-01T20:33:20;5.50;;;4.90;;
16314;SDS011;8266;52.150;4.768;2023-04-01T20:36:24;5.60;;;4.97;;
16314;SDS011;8266;52.150;4.768;2023-04-01T20:42:04;4.68;;;4.28;;
16314;SDS011;8266;52.150;4.768;2023-04-01T20:44:54;4.88;;;4.47;;